sensor_id;sensor_type;location;lat;lon;timestamp;P1;durP1;ratioP1;P2;durP2;ratioP2
40931;SDS011;36257;46.052;12.540;2023-07-29T00:01:23;4.95;;;3.08;;
40931;SDS011;36257;46.052;12.540;2023-07-29T00:03:49;3.55;;;2.75;;
40931;SDS011;36257;46.052;12.540;2023-07-29T00:06:14;4.10;;;2.92;;
40931;SDS011;36257;46.052;12.540;2023-07-29T00:08:40;3.42;;;3.10;;
40931;SDS011;36257;46.052;12.540;2023-07-29T00:11:06;4.78;;;2.83;;
40931;SDS011;36257;46.052;12.540;2023-07-29T00:13:31;4.25;;;2.83;;
40931;SDS011;36257;46.052;12.540;2023-07-29T00:15:57;3.03;;;2.70;;
40931;SDS011;36257;46.052;12.540;2023-07-29T00:18:23;3.70;;;2.92;;
40931;SDS011;36257;46.052;12.540;2023-07-29T00:20:48;6.10;;;3.10;;
40931;SDS011;36257;46.052;12.540;2023-07-29T00:23:15;6.27;;;2.77;;
40931;SDS011;36257;46.052;12.540;2023-07-29T00:25:44;5.07;;;3.10;;
40931;SDS011;36257;46.052;12.540;2023-07-29T00:28:11;5.15;;;3.15;;
40931;SDS011;36257;46.052;12.540;2023-07-29T00:30:37;2.70;;;2.50;;
40931;SDS011;36257;46.052;12.540;2023-07-29T00:33:03;4.43;;;3.05;;
40931;SDS011;36257;46.052;12.540;2023-07-29T00:35:29;3.28;;;2.97;;
40931;SDS011;36257;46.052;12.540;2023-07-29T00:37:54;7.28;;;3.03;;
40931;SDS011;36257;46.052;12.540;2023-07-29T00:40:20;5.93;;;3.95;;
40931;SDS011;36257;46.052;12.540;2023-07-29T00:42:47;3.65;;;2.60;;
40931;SDS011;36257;46.052;12.540;2023-07-29T00:45:14;5.88;;;3.25;;
40931;SDS011;36257;46.052;12.540;2023-07-29T00:47:39;3.83;;;3.42;;
40931;SDS011;36257;46.052;12.540;2023-07-29T00:50:06;4.78;;;2.83;;
40931;SDS011;36257;46.052;12.540;2023-07-29T00:54:59;5.55;;;3.20;;
40931;SDS011;36257;46.052;12.540;2023-07-29T00:57:24;5.88;;;2.92;;
40931;SDS011;36257;46.052;12.540;2023-07-29T00:59:51;3.25;;;2.53;;
40931;SDS011;36257;46.052;12.540;2023-07-29T01:02:17;5.97;;;3.13;;
40931;SDS011;36257;46.052;12.540;2023-07-29T01:04:43;5.22;;;3.58;;
40931;SDS011;36257;46.052;12.540;2023-07-29T01:12:42;4.38;;;3.13;;
40931;SDS011;36257;46.052;12.540;2023-07-29T01:15:26;4.47;;;3.28;;
40931;SDS011;36257;46.052;12.540;2023-07-29T01:18:11;4.30;;;2.90;;
40931;SDS011;36257;46.052;12.540;2023-07-29T01:20:45;5.60;;;3.30;;
40931;SDS011;36257;46.052;12.540;2023-07-29T01:23:12;4.87;;;3.37;;
40931;SDS011;36257;46.052;12.540;2023-07-29T01:25:38;3.10;;;2.70;;
40931;SDS011;36257;46.052;12.540;2023-07-29T01:28:04;7.57;;;3.63;;
40931;SDS011;36257;46.052;12.540;2023-07-29T01:30:30;4.78;;;3.13;;
40931;SDS011;36257;46.052;12.540;2023-07-29T01:33:09;4.97;;;3.40;;
40931;SDS011;36257;46.052;12.540;2023-07-29T01:35:51;8.48;;;3.17;;
40931;SDS011;36257;46.052;12.540;2023-07-29T01:38:28;4.60;;;2.85;;
40931;SDS011;36257;46.052;12.540;2023-07-29T01:41:04;4.30;;;3.03;;
40931;SDS011;36257;46.052;12.540;2023-07-29T01:43:33;4.05;;;3.28;;
40931;SDS011;36257;46.052;12.540;2023-07-29T01:46:00;4.65;;;3.72;;
40931;SDS011;36257;46.052;12.540;2023-07-29T01:48:26;4.03;;;3.42;;
40931;SDS011;36257;46.052;12.540;2023-07-29T01:50:52;6.07;;;3.35;;
40931;SDS011;36257;46.052;12.540;2023-07-29T01:53:18;5.82;;;3.17;;
40931;SDS011;36257;46.052;12.540;2023-07-29T01:55:44;4.97;;;3.33;;
40931;SDS011;36257;46.052;12.540;2023-07-29T01:58:10;3.30;;;3.00;;
40931;SDS011;36257;46.052;12.540;2023-07-29T02:00:36;4.85;;;3.40;;
40931;SDS011;36257;46.052;12.540;2023-07-29T02:03:01;3.97;;;3.00;;
40931;SDS011;36257;46.052;12.540;2023-07-29T02:05:27;4.60;;;3.50;;
40931;SDS011;36257;46.052;12.540;2023-07-29T02:07:53;4.22;;;3.17;;
40931;SDS011;36257;46.052;12.540;2023-07-29T02:10:19;4.97;;;3.13;;
40931;SDS011;36257;46.052;12.540;2023-07-29T02:12:44;4.43;;;3.40;;
40931;SDS011;36257;46.052;12.540;2023-07-29T02:15:10;3.72;;;3.30;;
40931;SDS011;36257;46.052;12.540;2023-07-29T02:17:36;3.97;;;3.63;;
40931;SDS011;36257;46.052;12.540;2023-07-29T02:20:02;6.55;;;3.42;;
40931;SDS011;36257;46.052;12.540;2023-07-29T02:22:28;3.35;;;3.05;;
40931;SDS011;36257;46.052;12.540;2023-07-29T02:24:54;7.80;;;3.10;;
40931;SDS011;36257;46.052;12.540;2023-07-29T02:27:20;3.55;;;3.20;;
40931;SDS011;36257;46.052;12.540;2023-07-29T02:29:46;3.15;;;2.75;;
40931;SDS011;36257;46.052;12.540;2023-07-29T02:32:11;5.88;;;3.47;;
40931;SDS011;36257;46.052;12.540;2023-07-29T02:34:37;3.53;;;3.03;;
40931;SDS011;36257;46.052;12.540;2023-07-29T02:37:03;5.18;;;3.33;;
40931;SDS011;36257;46.052;12.540;2023-07-29T02:39:28;4.45;;;3.63;;
40931;SDS011;36257;46.052;12.540;2023-07-29T02:41:54;6.65;;;2.97;;
40931;SDS011;36257;46.052;12.540;2023-07-29T02:44:21;5.83;;;3.20;;
40931;SDS011;36257;46.052;12.540;2023-07-29T02:46:46;5.90;;;3.85;;
40931;SDS011;36257;46.052;12.540;2023-07-29T02:49:12;5.85;;;3.28;;
40931;SDS011;36257;46.052;12.540;2023-07-29T02:51:37;4.05;;;3.70;;
40931;SDS011;36257;46.052;12.540;2023-07-29T02:54:03;4.10;;;3.22;;
40931;SDS011;36257;46.052;12.540;2023-07-29T02:56:29;4.93;;;3.33;;
40931;SDS011;36257;46.052;12.540;2023-07-29T02:58:55;6.50;;;3.40;;
40931;SDS011;36257;46.052;12.540;2023-07-29T03:01:22;5.40;;;3.55;;
40931;SDS011;36257;46.052;12.540;2023-07-29T03:03:50;4.03;;;2.63;;
40931;SDS011;36257;46.052;12.540;2023-07-29T03:06:15;3.78;;;2.83;;
40931;SDS011;36257;46.052;12.540;2023-07-29T03:08:41;4.65;;;3.22;;
40931;SDS011;36257;46.052;12.540;2023-07-29T03:11:11;5.97;;;3.42;;
40931;SDS011;36257;46.052;12.540;2023-07-29T03:13:38;3.47;;;2.92;;
40931;SDS011;36257;46.052;12.540;2023-07-29T03:16:08;4.10;;;3.28;;
40931;SDS011;36257;46.052;12.540;2023-07-29T03:18:38;8.65;;;3.40;;
40931;SDS011;36257;46.052;12.540;2023-07-29T03:21:04;5.30;;;3.25;;
40931;SDS011;36257;46.052;12.540;2023-07-29T03:23:32;4.05;;;3.65;;
40931;SDS011;36257;46.052;12.540;2023-07-29T03:25:59;5.80;;;4.07;;
40931;SDS011;36257;46.052;12.540;2023-07-29T03:28:26;4.60;;;3.42;;
40931;SDS011;36257;46.052;12.540;2023-07-29T03:30:53;6.40;;;4.22;;
40931;SDS011;36257;46.052;12.540;2023-07-29T03:33:19;3.55;;;3.20;;
40931;SDS011;36257;46.052;12.540;2023-07-29T03:35:45;4.03;;;3.63;;
40931;SDS011;36257;46.052;12.540;2023-07-29T03:38:11;4.60;;;3.90;;
40931;SDS011;36257;46.052;12.540;2023-07-29T03:40:37;6.00;;;4.60;;
40931;SDS011;36257;46.052;12.540;2023-07-29T03:43:04;5.47;;;4.35;;
40931;SDS011;36257;46.052;12.540;2023-07-29T03:45:29;5.40;;;3.90;;
40931;SDS011;36257;46.052;12.540;2023-07-29T03:47:55;5.47;;;4.00;;
40931;SDS011;36257;46.052;12.540;2023-07-29T03:50:21;5.15;;;3.80;;
40931;SDS011;36257;46.052;12.540;2023-07-29T03:52:47;5.22;;;3.78;;
40931;SDS011;36257;46.052;12.540;2023-07-29T03:55:12;5.40;;;3.70;;
40931;SDS011;36257;46.052;12.540;2023-07-29T03:57:38;5.72;;;4.65;;
40931;SDS011;36257;46.052;12.540;2023-07-29T04:00:04;6.63;;;3.95;;
40931;SDS011;36257;46.052;12.540;2023-07-29T04:02:30;4.40;;;4.10;;
40931;SDS011;36257;46.052;12.540;2023-07-29T04:04:56;4.43;;;4.10;;
40931;SDS011;36257;46.052;12.540;2023-07-29T04:07:22;5.45;;;4.00;;
40931;SDS011;36257;46.052;12.540;2023-07-29T04:09:48;11.95;;;5.22;;
40931;SDS011;36257;46.052;12.540;2023-07-29T04:12:14;4.72;;;4.15;;
40931;SDS011;36257;46.052;12.540;2023-07-29T04:14:40;4.60;;;4.20;;
40931;SDS011;36257;46.052;12.540;2023-07-29T04:17:06;6.07;;;5.35;;
40931;SDS011;36257;46.052;12.540;2023-07-29T04:19:32;5.53;;;4.47;;
40931;SDS011;36257;46.052;12.540;2023-07-29T04:21:58;8.23;;;5.80;;
40931;SDS011;36257;46.052;12.540;2023-07-29T04:24:24;5.20;;;4.70;;
40931;SDS011;36257;46.052;12.540;2023-07-29T04:26:49;7.95;;;4.78;;
40931;SDS011;36257;46.052;12.540;2023-07-29T04:29:15;7.53;;;5.25;;
40931;SDS011;36257;46.052;12.540;2023-07-29T04:31:40;6.20;;;4.95;;
40931;SDS011;36257;46.052;12.540;2023-07-29T04:34:07;7.70;;;4.55;;
40931;SDS011;36257;46.052;12.540;2023-07-29T04:36:33;6.13;;;5.50;;
40931;SDS011;36257;46.052;12.540;2023-07-29T04:38:59;6.22;;;5.60;;
40931;SDS011;36257;46.052;12.540;2023-07-29T04:41:24;7.20;;;6.13;;
40931;SDS011;36257;46.052;12.540;2023-07-29T04:43:50;6.40;;;5.53;;
40931;SDS011;36257;46.052;12.540;2023-07-29T04:46:15;7.60;;;5.20;;
40931;SDS011;36257;46.052;12.540;2023-07-29T04:48:41;5.43;;;5.00;;
40931;SDS011;36257;46.052;12.540;2023-07-29T04:51:07;5.07;;;4.68;;
40931;SDS011;36257;46.052;12.540;2023-07-29T04:53:32;7.65;;;5.13;;
40931;SDS011;36257;46.052;12.540;2023-07-29T04:56:00;5.68;;;4.85;;
40931;SDS011;36257;46.052;12.540;2023-07-29T04:58:26;5.35;;;4.95;;
40931;SDS011;36257;46.052;12.540;2023-07-29T05:00:53;5.97;;;5.15;;
40931;SDS011;36257;46.052;12.540;2023-07-29T05:03:19;6.25;;;4.78;;
40931;SDS011;36257;46.052;12.540;2023-07-29T05:05:45;5.63;;;5.13;;
40931;SDS011;36257;46.052;12.540;2023-07-29T05:08:10;7.35;;;4.78;;
40931;SDS011;36257;46.052;12.540;2023-07-29T05:10:36;5.20;;;4.80;;
40931;SDS011;36257;46.052;12.540;2023-07-29T05:13:02;5.22;;;4.80;;
40931;SDS011;36257;46.052;12.540;2023-07-29T05:15:27;5.38;;;4.78;;
40931;SDS011;36257;46.052;12.540;2023-07-29T05:17:53;5.38;;;4.88;;
40931;SDS011;36257;46.052;12.540;2023-07-29T05:20:18;6.40;;;4.70;;
40931;SDS011;36257;46.052;12.540;2023-07-29T05:22:44;5.68;;;4.50;;
40931;SDS011;36257;46.052;12.540;2023-07-29T05:25:10;5.13;;;4.63;;
40931;SDS011;36257;46.052;12.540;2023-07-29T05:27:35;5.57;;;5.07;;
40931;SDS011;36257;46.052;12.540;2023-07-29T05:30:01;6.40;;;5.65;;
40931;SDS011;36257;46.052;12.540;2023-07-29T05:32:27;5.78;;;5.20;;
40931;SDS011;36257;46.052;12.540;2023-07-29T05:34:52;6.40;;;4.95;;
40931;SDS011;36257;46.052;12.540;2023-07-29T05:37:18;4.20;;;3.80;;
40931;SDS011;36257;46.052;12.540;2023-07-29T05:39:43;6.28;;;3.92;;
40931;SDS011;36257;46.052;12.540;2023-07-29T05:42:09;4.65;;;4.22;;
40931;SDS011;36257;46.052;12.540;2023-07-29T05:44:35;5.78;;;3.97;;
40931;SDS011;36257;46.052;12.540;2023-07-29T05:47:00;5.85;;;4.88;;
40931;SDS011;36257;46.052;12.540;2023-07-29T05:49:26;7.20;;;4.20;;
40931;SDS011;36257;46.052;12.540;2023-07-29T05:51:51;6.20;;;4.35;;
40931;SDS011;36257;46.052;12.540;2023-07-29T05:54:18;5.95;;;4.53;;
40931;SDS011;36257;46.052;12.540;2023-07-29T05:56:44;5.07;;;4.18;;
40931;SDS011;36257;46.052;12.540;2023-07-29T05:59:09;5.35;;;4.45;;
40931;SDS011;36257;46.052;12.540;2023-07-29T06:01:35;5.70;;;4.55;;
40931;SDS011;36257;46.052;12.540;2023-07-29T06:04:01;4.53;;;3.67;;
40931;SDS011;36257;46.052;12.540;2023-07-29T06:06:26;6.28;;;3.30;;
40931;SDS011;36257;46.052;12.540;2023-07-29T06:08:52;4.97;;;3.53;;
40931;SDS011;36257;46.052;12.540;2023-07-29T06:11:18;5.20;;;4.30;;
40931;SDS011;36257;46.052;12.540;2023-07-29T06:13:44;5.28;;;3.20;;
40931;SDS011;36257;46.052;12.540;2023-07-29T06:16:10;5.15;;;3.72;;
40931;SDS011;36257;46.052;12.540;2023-07-29T06:18:36;5.43;;;3.55;;
40931;SDS011;36257;46.052;12.540;2023-07-29T06:21:01;3.22;;;2.92;;
40931;SDS011;36257;46.052;12.540;2023-07-29T06:23:32;12.18;;;4.20;;
40931;SDS011;36257;46.052;12.540;2023-07-29T06:25:58;3.55;;;3.03;;
40931;SDS011;36257;46.052;12.540;2023-07-29T06:28:25;5.43;;;2.92;;
40931;SDS011;36257;46.052;12.540;2023-07-29T06:30:51;3.03;;;2.65;;
40931;SDS011;36257;46.052;12.540;2023-07-29T06:33:17;3.47;;;3.08;;
40931;SDS011;36257;46.052;12.540;2023-07-29T06:35:43;6.53;;;3.00;;
40931;SDS011;36257;46.052;12.540;2023-07-29T06:38:09;5.47;;;3.72;;
40931;SDS011;36257;46.052;12.540;2023-07-29T06:40:34;2.97;;;2.67;;
40931;SDS011;36257;46.052;12.540;2023-07-29T06:43:00;4.70;;;3.10;;
40931;SDS011;36257;46.052;12.540;2023-07-29T06:45:26;4.53;;;3.13;;
40931;SDS011;36257;46.052;12.540;2023-07-29T06:47:51;4.50;;;3.28;;
40931;SDS011;36257;46.052;12.540;2023-07-29T06:50:17;3.55;;;3.05;;
40931;SDS011;36257;46.052;12.540;2023-07-29T06:52:43;4.00;;;3.50;;
40931;SDS011;36257;46.052;12.540;2023-07-29T06:55:10;5.32;;;3.00;;
40931;SDS011;36257;46.052;12.540;2023-07-29T06:57:35;3.70;;;2.90;;
40931;SDS011;36257;46.052;12.540;2023-07-29T07:00:01;3.65;;;2.90;;
40931;SDS011;36257;46.052;12.540;2023-07-29T07:02:28;5.28;;;2.97;;
40931;SDS011;36257;46.052;12.540;2023-07-29T07:04:53;3.28;;;2.90;;
40931;SDS011;36257;46.052;12.540;2023-07-29T07:07:19;5.63;;;2.97;;
40931;SDS011;36257;46.052;12.540;2023-07-29T07:09:45;4.28;;;2.42;;
40931;SDS011;36257;46.052;12.540;2023-07-29T07:12:11;3.30;;;2.03;;
40931;SDS011;36257;46.052;12.540;2023-07-29T07:14:36;2.55;;;1.60;;
40931;SDS011;36257;46.052;12.540;2023-07-29T07:17:03;6.57;;;2.17;;
40931;SDS011;36257;46.052;12.540;2023-07-29T07:19:28;3.05;;;2.40;;
40931;SDS011;36257;46.052;12.540;2023-07-29T07:21:54;3.03;;;2.40;;
40931;SDS011;36257;46.052;12.540;2023-07-29T07:24:20;6.75;;;2.70;;
40931;SDS011;36257;46.052;12.540;2023-07-29T07:26:45;2.10;;;1.95;;
40931;SDS011;36257;46.052;12.540;2023-07-29T07:29:11;2.72;;;2.40;;
40931;SDS011;36257;46.052;12.540;2023-07-29T07:31:36;3.97;;;2.70;;
40931;SDS011;36257;46.052;12.540;2023-07-29T07:34:02;2.85;;;2.25;;
40931;SDS011;36257;46.052;12.540;2023-07-29T07:36:28;3.33;;;2.33;;
40931;SDS011;36257;46.052;12.540;2023-07-29T07:38:54;3.70;;;2.53;;
40931;SDS011;36257;46.052;12.540;2023-07-29T07:41:20;5.07;;;2.38;;
40931;SDS011;36257;46.052;12.540;2023-07-29T07:43:46;1.95;;;1.75;;
40931;SDS011;36257;46.052;12.540;2023-07-29T07:46:11;3.55;;;2.00;;
40931;SDS011;36257;46.052;12.540;2023-07-29T07:48:37;3.67;;;2.00;;
40931;SDS011;36257;46.052;12.540;2023-07-29T07:51:10;3.97;;;2.45;;
40931;SDS011;36257;46.052;12.540;2023-07-29T07:53:37;5.03;;;2.30;;
40931;SDS011;36257;46.052;12.540;2023-07-29T07:56:03;3.30;;;2.35;;
40931;SDS011;36257;46.052;12.540;2023-07-29T07:58:28;2.83;;;2.33;;
40931;SDS011;36257;46.052;12.540;2023-07-29T08:01:00;2.65;;;2.08;;
40931;SDS011;36257;46.052;12.540;2023-07-29T08:03:27;2.42;;;2.10;;
40931;SDS011;36257;46.052;12.540;2023-07-29T08:05:52;4.68;;;2.88;;
40931;SDS011;36257;46.052;12.540;2023-07-29T08:08:18;2.30;;;2.10;;
40931;SDS011;36257;46.052;12.540;2023-07-29T08:10:44;3.80;;;2.55;;
40931;SDS011;36257;46.052;12.540;2023-07-29T08:13:09;3.55;;;2.40;;
40931;SDS011;36257;46.052;12.540;2023-07-29T08:15:35;4.75;;;2.72;;
40931;SDS011;36257;46.052;12.540;2023-07-29T08:18:00;3.70;;;2.22;;
40931;SDS011;36257;46.052;12.540;2023-07-29T08:20:26;5.65;;;2.53;;
40931;SDS011;36257;46.052;12.540;2023-07-29T08:22:52;4.07;;;2.47;;
40931;SDS011;36257;46.052;12.540;2023-07-29T08:25:17;3.70;;;2.63;;
40931;SDS011;36257;46.052;12.540;2023-07-29T08:27:43;5.80;;;2.78;;
40931;SDS011;36257;46.052;12.540;2023-07-29T08:30:09;4.75;;;2.95;;
40931;SDS011;36257;46.052;12.540;2023-07-29T08:32:34;3.78;;;2.17;;
40931;SDS011;36257;46.052;12.540;2023-07-29T08:35:00;3.38;;;2.38;;
40931;SDS011;36257;46.052;12.540;2023-07-29T08:37:26;5.90;;;3.08;;
40931;SDS011;36257;46.052;12.540;2023-07-29T08:39:52;2.85;;;2.10;;
40931;SDS011;36257;46.052;12.540;2023-07-29T08:42:19;5.55;;;2.22;;
40931;SDS011;36257;46.052;12.540;2023-07-29T08:44:45;6.07;;;2.13;;
40931;SDS011;36257;46.052;12.540;2023-07-29T08:47:14;4.05;;;3.17;;
40931;SDS011;36257;46.052;12.540;2023-07-29T08:49:41;3.65;;;2.88;;
40931;SDS011;36257;46.052;12.540;2023-07-29T08:52:07;3.05;;;2.42;;
40931;SDS011;36257;46.052;12.540;2023-07-29T08:54:34;3.63;;;2.53;;
40931;SDS011;36257;46.052;12.540;2023-07-29T08:57:00;3.05;;;2.20;;
40931;SDS011;36257;46.052;12.540;2023-07-29T08:59:27;3.83;;;1.92;;
40931;SDS011;36257;46.052;12.540;2023-07-29T09:01:54;2.83;;;2.00;;
40931;SDS011;36257;46.052;12.540;2023-07-29T09:04:22;3.42;;;2.58;;
40931;SDS011;36257;46.052;12.540;2023-07-29T09:06:51;2.63;;;2.00;;
40931;SDS011;36257;46.052;12.540;2023-07-29T09:09:18;4.20;;;2.00;;
40931;SDS011;36257;46.052;12.540;2023-07-29T09:11:43;3.10;;;2.28;;
40931;SDS011;36257;46.052;12.540;2023-07-29T09:14:09;3.78;;;1.70;;
40931;SDS011;36257;46.052;12.540;2023-07-29T09:16:35;3.13;;;2.25;;
40931;SDS011;36257;46.052;12.540;2023-07-29T09:19:01;3.30;;;2.00;;
40931;SDS011;36257;46.052;12.540;2023-07-29T09:21:31;1.98;;;1.50;;
40931;SDS011;36257;46.052;12.540;2023-07-29T09:23:57;4.47;;;1.73;;
40931;SDS011;36257;46.052;12.540;2023-07-29T09:26:28;3.10;;;1.50;;
40931;SDS011;36257;46.052;12.540;2023-07-29T09:28:54;2.38;;;1.67;;
40931;SDS011;36257;46.052;12.540;2023-07-29T09:31:21;2.75;;;1.65;;
40931;SDS011;36257;46.052;12.540;2023-07-29T09:36:14;2.83;;;1.33;;
40931;SDS011;36257;46.052;12.540;2023-07-29T09:38:40;6.45;;;1.85;;
40931;SDS011;36257;46.052;12.540;2023-07-29T09:41:05;1.90;;;1.73;;
40931;SDS011;36257;46.052;12.540;2023-07-29T09:43:32;2.15;;;1.58;;
40931;SDS011;36257;46.052;12.540;2023-07-29T09:46:02;1.88;;;1.40;;
40931;SDS011;36257;46.052;12.540;2023-07-29T09:48:32;4.57;;;1.63;;
40931;SDS011;36257;46.052;12.540;2023-07-29T09:50:59;2.75;;;2.05;;
40931;SDS011;36257;46.052;12.540;2023-07-29T09:53:38;3.08;;;1.42;;
40931;SDS011;36257;46.052;12.540;2023-07-29T09:56:05;3.80;;;1.80;;
40931;SDS011;36257;46.052;12.540;2023-07-29T09:58:30;4.70;;;1.60;;
40931;SDS011;36257;46.052;12.540;2023-07-29T10:00:58;2.25;;;1.45;;
40931;SDS011;36257;46.052;12.540;2023-07-29T10:03:24;2.45;;;1.58;;
40931;SDS011;36257;46.052;12.540;2023-07-29T10:05:50;2.13;;;1.58;;
40931;SDS011;36257;46.052;12.540;2023-07-29T10:08:17;1.65;;;1.38;;
40931;SDS011;36257;46.052;12.540;2023-07-29T10:10:44;4.35;;;1.88;;
40931;SDS011;36257;46.052;12.540;2023-07-29T10:13:10;3.97;;;2.22;;
40931;SDS011;36257;46.052;12.540;2023-07-29T10:15:37;2.90;;;2.00;;
40931;SDS011;36257;46.052;12.540;2023-07-29T10:18:03;2.83;;;1.58;;
40931;SDS011;36257;46.052;12.540;2023-07-29T10:20:32;4.53;;;1.90;;
40931;SDS011;36257;46.052;12.540;2023-07-29T10:23:00;4.20;;;2.00;;
40931;SDS011;36257;46.052;12.540;2023-07-29T10:25:32;1.98;;;1.77;;
40931;SDS011;36257;46.052;12.540;2023-07-29T10:28:05;3.80;;;2.00;;
40931;SDS011;36257;46.052;12.540;2023-07-29T10:30:32;2.03;;;1.70;;
40931;SDS011;36257;46.052;12.540;2023-07-29T10:32:59;2.10;;;1.50;;
40931;SDS011;36257;46.052;12.540;2023-07-29T10:35:28;1.85;;;1.75;;
40931;SDS011;36257;46.052;12.540;2023-07-29T10:37:54;3.25;;;1.92;;
40931;SDS011;36257;46.052;12.540;2023-07-29T10:40:20;2.90;;;1.65;;
40931;SDS011;36257;46.052;12.540;2023-07-29T10:45:39;3.10;;;1.95;;
40931;SDS011;36257;46.052;12.540;2023-07-29T10:53:52;2.97;;;1.85;;
40931;SDS011;36257;46.052;12.540;2023-07-29T10:56:26;4.40;;;1.83;;
40931;SDS011;36257;46.052;12.540;2023-07-29T10:59:02;2.70;;;1.80;;
40931;SDS011;36257;46.052;12.540;2023-07-29T11:01:56;3.38;;;2.13;;
40931;SDS011;36257;46.052;12.540;2023-07-29T11:04:27;3.70;;;2.28;;
40931;SDS011;36257;46.052;12.540;2023-07-29T11:10:08;2.92;;;2.00;;
40931;SDS011;36257;46.052;12.540;2023-07-29T11:17:57;2.58;;;2.38;;
40931;SDS011;36257;46.052;12.540;2023-07-29T11:22:58;3.95;;;2.42;;
40931;SDS011;36257;46.052;12.540;2023-07-29T11:25:29;4.38;;;2.60;;
40931;SDS011;36257;46.052;12.540;2023-07-29T11:27:57;2.88;;;2.40;;
40931;SDS011;36257;46.052;12.540;2023-07-29T11:30:24;2.65;;;2.40;;
40931;SDS011;36257;46.052;12.540;2023-07-29T11:32:55;2.42;;;2.22;;
40931;SDS011;36257;46.052;12.540;2023-07-29T11:35:21;3.42;;;2.45;;
40931;SDS011;36257;46.052;12.540;2023-07-29T11:37:47;4.18;;;2.15;;
40931;SDS011;36257;46.052;12.540;2023-07-29T11:40:18;3.88;;;2.33;;
40931;SDS011;36257;46.052;12.540;2023-07-29T11:42:47;3.63;;;2.33;;
40931;SDS011;36257;46.052;12.540;2023-07-29T11:45:15;3.20;;;2.20;;
40931;SDS011;36257;46.052;12.540;2023-07-29T11:47:41;2.60;;;2.17;;
40931;SDS011;36257;46.052;12.540;2023-07-29T11:50:08;5.28;;;2.72;;
40931;SDS011;36257;46.052;12.540;2023-07-29T11:52:39;3.60;;;2.33;;
40931;SDS011;36257;46.052;12.540;2023-07-29T11:55:06;3.45;;;2.13;;
40931;SDS011;36257;46.052;12.540;2023-07-29T11:57:36;4.50;;;2.20;;
40931;SDS011;36257;46.052;12.540;2023-07-29T12:00:03;2.65;;;2.28;;
40931;SDS011;36257;46.052;12.540;2023-07-29T12:02:31;3.35;;;2.10;;
40931;SDS011;36257;46.052;12.540;2023-07-29T12:04:58;2.83;;;2.13;;
40931;SDS011;36257;46.052;12.540;2023-07-29T12:07:24;2.78;;;2.30;;
40931;SDS011;36257;46.052;12.540;2023-07-29T12:09:50;3.33;;;2.00;;
40931;SDS011;36257;46.052;12.540;2023-07-29T12:12:17;3.17;;;1.88;;
40931;SDS011;36257;46.052;12.540;2023-07-29T12:14:46;2.83;;;2.58;;
40931;SDS011;36257;46.052;12.540;2023-07-29T12:17:11;3.60;;;2.83;;
40931;SDS011;36257;46.052;12.540;2023-07-29T12:19:38;3.47;;;2.60;;
40931;SDS011;36257;46.052;12.540;2023-07-29T12:22:05;5.68;;;2.67;;
40931;SDS011;36257;46.052;12.540;2023-07-29T12:24:33;2.90;;;2.08;;
40931;SDS011;36257;46.052;12.540;2023-07-29T12:27:00;4.93;;;2.40;;
40931;SDS011;36257;46.052;12.540;2023-07-29T12:29:26;3.58;;;2.78;;
40931;SDS011;36257;46.052;12.540;2023-07-29T12:31:59;3.20;;;2.08;;
40931;SDS011;36257;46.052;12.540;2023-07-29T12:34:27;3.38;;;2.63;;
40931;SDS011;36257;46.052;12.540;2023-07-29T12:36:53;3.10;;;2.25;;
40931;SDS011;36257;46.052;12.540;2023-07-29T12:41:46;3.70;;;2.60;;
40931;SDS011;36257;46.052;12.540;2023-07-29T12:44:13;4.63;;;2.80;;
40931;SDS011;36257;46.052;12.540;2023-07-29T12:46:39;3.85;;;2.88;;
40931;SDS011;36257;46.052;12.540;2023-07-29T12:49:04;3.65;;;2.53;;
40931;SDS011;36257;46.052;12.540;2023-07-29T12:51:30;4.25;;;2.75;;
40931;SDS011;36257;46.052;12.540;2023-07-29T12:53:56;2.97;;;2.20;;
40931;SDS011;36257;46.052;12.540;2023-07-29T12:56:21;4.00;;;2.95;;
40931;SDS011;36257;46.052;12.540;2023-07-29T12:58:47;3.95;;;2.60;;
40931;SDS011;36257;46.052;12.540;2023-07-29T13:01:13;5.05;;;2.70;;
40931;SDS011;36257;46.052;12.540;2023-07-29T13:03:42;4.75;;;2.60;;
40931;SDS011;36257;46.052;12.540;2023-07-29T13:06:13;6.65;;;2.55;;
40931;SDS011;36257;46.052;12.540;2023-07-29T13:08:38;4.32;;;2.42;;
40931;SDS011;36257;46.052;12.540;2023-07-29T13:11:04;4.70;;;2.85;;
40931;SDS011;36257;46.052;12.540;2023-07-29T13:13:30;3.85;;;3.05;;
40931;SDS011;36257;46.052;12.540;2023-07-29T13:15:57;3.63;;;2.80;;
40931;SDS011;36257;46.052;12.540;2023-07-29T13:18:23;5.05;;;2.70;;
40931;SDS011;36257;46.052;12.540;2023-07-29T13:20:48;3.20;;;2.63;;
40931;SDS011;36257;46.052;12.540;2023-07-29T13:23:14;6.15;;;2.85;;
40931;SDS011;36257;46.052;12.540;2023-07-29T13:25:40;5.15;;;2.78;;
40931;SDS011;36257;46.052;12.540;2023-07-29T13:28:06;3.17;;;2.70;;
40931;SDS011;36257;46.052;12.540;2023-07-29T13:32:59;4.57;;;3.20;;
40931;SDS011;36257;46.052;12.540;2023-07-29T13:35:25;5.00;;;3.20;;
40931;SDS011;36257;46.052;12.540;2023-07-29T13:37:50;4.50;;;2.85;;
40931;SDS011;36257;46.052;12.540;2023-07-29T13:40:16;4.97;;;3.15;;
40931;SDS011;36257;46.052;12.540;2023-07-29T13:42:42;3.45;;;2.92;;
40931;SDS011;36257;46.052;12.540;2023-07-29T13:45:07;5.35;;;3.15;;
40931;SDS011;36257;46.052;12.540;2023-07-29T13:47:33;4.38;;;3.03;;
40931;SDS011;36257;46.052;12.540;2023-07-29T13:49:59;4.10;;;3.22;;
40931;SDS011;36257;46.052;12.540;2023-07-29T13:52:25;5.87;;;3.40;;
40931;SDS011;36257;46.052;12.540;2023-07-29T13:54:51;5.68;;;3.13;;
40931;SDS011;36257;46.052;12.540;2023-07-29T13:57:17;7.70;;;2.75;;
40931;SDS011;36257;46.052;12.540;2023-07-29T13:59:42;6.93;;;3.42;;
40931;SDS011;36257;46.052;12.540;2023-07-29T14:02:08;5.18;;;3.22;;
40931;SDS011;36257;46.052;12.540;2023-07-29T14:04:34;4.45;;;3.65;;
40931;SDS011;36257;46.052;12.540;2023-07-29T14:06:59;6.50;;;3.10;;
40931;SDS011;36257;46.052;12.540;2023-07-29T14:09:26;7.15;;;3.10;;
40931;SDS011;36257;46.052;12.540;2023-07-29T14:11:53;4.00;;;3.45;;
40931;SDS011;36257;46.052;12.540;2023-07-29T14:14:19;6.72;;;3.78;;
40931;SDS011;36257;46.052;12.540;2023-07-29T14:16:45;6.75;;;3.83;;
40931;SDS011;36257;46.052;12.540;2023-07-29T14:19:11;5.00;;;3.13;;
40931;SDS011;36257;46.052;12.540;2023-07-29T14:21:38;4.53;;;3.57;;
40931;SDS011;36257;46.052;12.540;2023-07-29T14:24:03;5.63;;;4.25;;
40931;SDS011;36257;46.052;12.540;2023-07-29T14:26:30;5.25;;;3.33;;
40931;SDS011;36257;46.052;12.540;2023-07-29T14:28:55;4.63;;;3.83;;
40931;SDS011;36257;46.052;12.540;2023-07-29T14:31:21;5.85;;;3.10;;
40931;SDS011;36257;46.052;12.540;2023-07-29T14:33:47;5.28;;;3.28;;
40931;SDS011;36257;46.052;12.540;2023-07-29T14:36:14;4.20;;;3.10;;
40931;SDS011;36257;46.052;12.540;2023-07-29T14:38:40;4.60;;;3.58;;
40931;SDS011;36257;46.052;12.540;2023-07-29T14:41:06;6.20;;;3.90;;
40931;SDS011;36257;46.052;12.540;2023-07-29T14:43:33;5.93;;;3.20;;
40931;SDS011;36257;46.052;12.540;2023-07-29T14:45:59;4.10;;;3.58;;
40931;SDS011;36257;46.052;12.540;2023-07-29T14:48:25;5.38;;;3.55;;
40931;SDS011;36257;46.052;12.540;2023-07-29T14:50:51;6.43;;;3.50;;
40931;SDS011;36257;46.052;12.540;2023-07-29T14:53:16;7.25;;;3.33;;
40931;SDS011;36257;46.052;12.540;2023-07-29T14:55:42;4.43;;;3.33;;
40931;SDS011;36257;46.052;12.540;2023-07-29T14:58:08;5.80;;;3.58;;
40931;SDS011;36257;46.052;12.540;2023-07-29T15:00:33;7.05;;;3.50;;
40931;SDS011;36257;46.052;12.540;2023-07-29T15:02:59;6.45;;;3.08;;
40931;SDS011;36257;46.052;12.540;2023-07-29T15:05:25;4.80;;;3.35;;